createdAt,value
2023-05-10T00:03:40.614Z,19.80
2023-05-10T00:08:41.919Z,23.37
2023-05-10T00:13:43.308Z,19.20
2023-05-10T00:18:44.639Z,23.47
2023-05-10T00:23:46.082Z,19.43
2023-05-10T00:28:47.607Z,23.70
2023-05-10T00:33:48.946Z,24.43
2023-05-10T00:38:50.491Z,24.70
2023-05-10T00:43:52.586Z,25.10
2023-05-10T00:48:54.122Z,28.97
2023-05-10T00:53:56.351Z,27.93
2023-05-10T00:58:58.044Z,23.73
2023-05-10T01:04:00.341Z,26.17
2023-05-10T01:09:02.377Z,25.57
2023-05-10T01:14:04.136Z,35.30
2023-05-10T01:19:19.508Z,22.63
2023-05-10T01:24:44.102Z,31.23
2023-05-10T01:29:51.473Z,30.30
2023-05-10T01:35:17.306Z,31.57
2023-05-10T01:40:36.740Z,29.23
2023-05-10T01:45:47.050Z,30.30
2023-05-10T01:50:51.296Z,29.20
2023-05-10T01:55:55.471Z,28.43
2023-05-10T02:01:00.994Z,27.90
2023-05-10T02:06:03.535Z,28.87
2023-05-10T02:11:05.837Z,31.47
2023-05-10T02:16:08.172Z,28.60
2023-05-10T02:21:11.561Z,34.40
2023-05-10T02:26:14.657Z,30.30
2023-05-10T02:31:18.284Z,29.43
2023-05-10T02:36:21.289Z,36.73
2023-05-10T02:41:24.494Z,32.53
2023-05-10T02:46:25.878Z,32.87
2023-05-10T02:51:32.295Z,34.23
2023-05-10T02:56:36.010Z,35.93
2023-05-10T03:01:37.343Z,32.27
2023-05-10T03:06:39.901Z,34.87
2023-05-10T03:12:09.239Z,34.10
2023-05-10T03:17:48.161Z,33.83
2023-05-10T03:22:55.923Z,32.43
2023-05-10T03:27:58.466Z,38.10
2023-05-10T03:33:06.303Z,38.20
2023-05-10T03:38:10.157Z,36.13
2023-05-10T03:43:11.698Z,39.13
2023-05-10T03:48:13.984Z,41.93
2023-05-10T03:53:16.566Z,44.93
2023-05-10T03:58:18.716Z,36.13
2023-05-10T04:03:20.711Z,36.93
2023-05-10T04:08:22.290Z,36.67
2023-05-10T04:13:24.061Z,40.40
2023-05-10T04:18:25.876Z,40.87
2023-05-10T04:23:27.886Z,44.00
2023-05-10T04:28:29.321Z,49.33
2023-05-10T04:33:31.302Z,46.90
2023-05-10T04:38:32.623Z,51.77
2023-05-10T04:43:33.946Z,51.30
2023-05-10T04:48:35.279Z,48.97
2023-05-10T04:53:36.903Z,55.50
2023-05-10T04:58:38.522Z,54.37
2023-05-10T05:03:40.114Z,49.20
2023-05-10T05:08:41.822Z,51.80
2023-05-10T05:13:43.710Z,53.93
2023-05-10T05:18:44.931Z,60.17
2023-05-10T05:23:46.725Z,50.40
2023-05-10T05:28:49.056Z,57.03
2023-05-10T05:33:50.499Z,56.97
2023-05-10T05:38:51.799Z,53.07
2023-05-10T05:43:53.276Z,45.13
2023-05-10T05:48:54.408Z,53.70
2023-05-10T05:53:55.917Z,50.40
2023-05-10T05:58:57.305Z,55.10
2023-05-10T06:03:58.881Z,54.23
2023-05-10T06:09:00.390Z,49.03
2023-05-10T06:14:02.383Z,45.63
2023-05-10T06:19:03.696Z,53.30
2023-05-10T06:24:06.930Z,45.40
2023-05-10T06:29:08.378Z,40.58
2023-05-10T06:34:10.057Z,48.83
2023-05-10T06:39:12.264Z,41.27
2023-05-10T06:44:13.596Z,39.40
2023-05-10T06:49:14.774Z,31.17
2023-05-10T06:54:16.123Z,35.35
2023-05-10T06:59:19.460Z,35.45
2023-05-10T07:04:20.650Z,37.42
2023-05-10T07:09:22.153Z,40.95
2023-05-10T07:14:23.707Z,40.78
2023-05-10T07:19:25.028Z,32.70
2023-05-10T07:24:26.439Z,26.08
2023-05-10T07:29:27.632Z,28.63
2023-05-10T07:34:30.422Z,28.85
2023-05-10T07:39:31.827Z,30.52
2023-05-10T07:44:33.193Z,30.10
2023-05-10T07:49:34.458Z,29.23
2023-05-10T07:54:35.819Z,30.40
2023-05-10T07:59:37.261Z,25.50
2023-05-10T08:04:38.826Z,28.63
2023-05-10T08:09:40.283Z,31.02
2023-05-10T08:14:41.879Z,25.85
2023-05-10T08:19:43.249Z,30.77
2023-05-10T08:24:44.536Z,26.02
2023-05-10T08:29:50.199Z,25.13
2023-05-10T08:34:52.170Z,31.25
2023-05-10T08:39:53.638Z,27.40
2023-05-10T08:44:56.511Z,21.10
2023-05-10T08:49:59.859Z,23.00
2023-05-10T08:55:01.302Z,21.02
2023-05-10T09:00:03.211Z,19.58
2023-05-10T09:05:06.701Z,19.10
2023-05-10T09:10:09.524Z,20.17
2023-05-10T09:15:11.404Z,17.15
2023-05-10T09:20:12.960Z,17.60
2023-05-10T09:25:16.177Z,15.00
2023-05-10T09:30:24.722Z,14.00
2023-05-10T09:35:29.619Z,15.35
2023-05-10T09:40:32.112Z,13.75
2023-05-10T09:45:37.744Z,17.10
2023-05-10T09:50:40.634Z,15.73
2023-05-10T09:55:45.237Z,11.50
2023-05-10T10:00:52.613Z,10.38
2023-05-10T10:05:56.215Z,11.23
2023-05-10T10:10:57.862Z,9.75
2023-05-10T10:16:02.691Z,10.38
2023-05-10T10:21:04.030Z,7.53
2023-05-10T10:26:06.166Z,7.85
2023-05-10T10:31:39.517Z,9.65
2023-05-10T10:36:45.246Z,7.35
2023-05-10T10:41:56.085Z,9.68
2023-05-10T10:47:13.476Z,9.40
2023-05-10T10:52:20.902Z,10.00
2023-05-10T10:57:22.270Z,7.50
2023-05-10T11:02:42.636Z,8.77
2023-05-10T11:07:55.195Z,9.90
2023-05-10T11:13:01.652Z,8.20
2023-05-10T11:18:21.348Z,7.55
2023-05-10T11:23:23.127Z,9.75
2023-05-10T11:28:26.132Z,6.80
2023-05-10T11:33:27.390Z,6.45
2023-05-10T11:38:28.773Z,7.28
2023-05-10T11:43:31.027Z,8.07
2023-05-10T11:48:32.815Z,9.63
2023-05-10T11:53:34.242Z,8.52
2023-05-10T11:58:37.179Z,7.45
2023-05-10T12:03:38.963Z,9.18
2023-05-10T12:08:45.896Z,6.55
2023-05-10T12:13:47.595Z,6.43
2023-05-10T12:18:53.934Z,7.43
2023-05-10T12:24:00.617Z,7.88
2023-05-10T12:29:18.944Z,8.50
2023-05-10T12:34:30.385Z,6.05
2023-05-10T12:39:40.298Z,10.73
2023-05-10T12:44:41.470Z,7.32
2023-05-10T12:49:42.739Z,7.78
2023-05-10T12:54:43.972Z,6.60
2023-05-10T12:59:45.383Z,6.45
2023-05-10T13:04:48.845Z,6.28
2023-05-10T13:09:51.642Z,7.07
2023-05-10T13:14:53.072Z,6.55
2023-05-10T13:19:54.383Z,8.13
2023-05-10T13:24:55.606Z,7.57
2023-05-10T13:29:59.598Z,7.10
2023-05-10T13:35:01.501Z,8.00
2023-05-10T13:40:04.295Z,6.80
2023-05-10T13:45:06.523Z,6.18
2023-05-10T13:50:08.718Z,5.65
2023-05-10T13:55:12.655Z,4.20
2023-05-10T14:00:17.081Z,5.93
2023-05-10T14:05:19.329Z,5.32
2023-05-10T14:10:23.709Z,8.43
2023-05-10T14:15:25.001Z,6.88
2023-05-10T14:20:26.478Z,7.22
2023-05-10T14:25:28.409Z,6.93
2023-05-10T14:30:29.734Z,8.88
2023-05-10T14:35:33.970Z,10.02
2023-05-10T14:40:35.207Z,10.07
2023-05-10T14:45:36.941Z,13.73
2023-05-10T14:50:39.015Z,12.40
2023-05-10T14:55:40.415Z,12.15
2023-05-10T15:00:41.744Z,14.25
2023-05-10T15:05:43.661Z,10.68
2023-05-10T15:10:45.003Z,13.85
2023-05-10T15:15:46.357Z,29.80
2023-05-10T15:20:48.067Z,11.50
2023-05-10T15:25:52.499Z,11.60
2023-05-10T15:30:53.737Z,11.43
2023-05-10T15:35:55.087Z,9.98
2023-05-10T15:40:58.303Z,9.82
2023-05-10T15:45:59.780Z,11.93
2023-05-10T15:51:01.202Z,10.60
2023-05-10T15:56:03.458Z,12.75
2023-05-10T16:01:07.757Z,9.68
2023-05-10T16:06:09.274Z,8.30
2023-05-10T16:11:10.685Z,10.07
2023-05-10T16:16:12.149Z,11.02
2023-05-10T16:21:13.485Z,10.50
2023-05-10T16:26:14.868Z,16.25
2023-05-10T16:31:18.065Z,10.43
2023-05-10T16:36:19.438Z,13.45
2023-05-10T16:41:20.919Z,9.75
2023-05-10T16:46:22.337Z,13.65
2023-05-10T16:51:23.502Z,12.45
2023-05-10T16:56:25.956Z,14.00
2023-05-10T17:01:27.542Z,14.63
2023-05-10T17:06:28.985Z,13.35
2023-05-10T17:11:31.215Z,17.83
2023-05-10T17:16:32.667Z,14.85
2023-05-10T17:21:34.305Z,17.45
2023-05-10T17:26:36.153Z,17.98
2023-05-10T17:31:37.997Z,16.83
2023-05-10T17:36:39.747Z,17.10
2023-05-10T17:41:41.513Z,18.48
2023-05-10T17:46:43.047Z,19.85
2023-05-10T17:51:47.211Z,19.48
2023-05-10T17:56:48.820Z,15.43
2023-05-10T18:01:50.190Z,20.30
2023-05-10T18:07:00.584Z,22.93
2023-05-10T18:12:02.646Z,26.03
2023-05-10T18:17:04.034Z,26.17
2023-05-10T18:22:08.148Z,21.57
2023-05-10T18:27:11.338Z,20.00
2023-05-10T18:32:12.552Z,21.03
2023-05-10T18:37:14.988Z,21.57
2023-05-10T18:42:16.808Z,19.63
2023-05-10T18:47:18.510Z,23.93
2023-05-10T18:52:19.923Z,25.17
2023-05-10T18:57:21.446Z,23.27
2023-05-10T19:02:24.582Z,21.80
2023-05-10T19:07:26.105Z,20.73
2023-05-10T19:12:27.840Z,26.83
2023-05-10T19:17:30.924Z,20.93
2023-05-10T19:22:47.206Z,22.30
2023-05-10T19:27:57.726Z,21.87
2023-05-10T19:32:59.376Z,23.47
2023-05-10T19:38:00.826Z,25.23
2023-05-10T19:43:03.061Z,27.43
2023-05-10T19:48:04.737Z,27.70
2023-05-10T19:53:06.121Z,28.77
2023-05-10T19:58:07.874Z,24.13
2023-05-10T20:03:09.483Z,29.33
2023-05-10T20:08:11.016Z,30.73
2023-05-10T20:13:12.424Z,29.60
2023-05-10T20:18:13.696Z,28.60
2023-05-10T20:23:15.318Z,27.23
2023-05-10T20:28:22.283Z,34.20
2023-05-10T20:33:24.438Z,29.47
2023-05-10T20:38:25.833Z,25.77
2023-05-10T20:43:28.486Z,33.83
2023-05-10T20:48:33.031Z,32.43
2023-05-10T20:53:35.015Z,32.77
2023-05-10T20:58:36.606Z,32.90
2023-05-10T21:03:37.994Z,31.77
2023-05-10T21:08:39.932Z,28.60
2023-05-10T21:13:41.690Z,30.63
2023-05-10T21:18:43.093Z,28.70
2023-05-10T21:23:48.073Z,30.77
2023-05-10T21:28:54.807Z,23.63
2023-05-10T21:33:56.479Z,25.70
2023-05-10T21:38:57.763Z,23.50
2023-05-10T21:43:59.129Z,30.47
2023-05-10T21:49:00.610Z,29.23
2023-05-10T21:54:02.193Z,33.37
2023-05-10T21:59:03.659Z,32.50
2023-05-10T22:04:04.984Z,32.37
2023-05-10T22:09:06.398Z,26.60
2023-05-10T22:14:07.569Z,28.57
2023-05-10T22:19:09.196Z,28.80
2023-05-10T22:24:11.054Z,39.17
2023-05-10T22:29:12.505Z,36.87
2023-05-10T22:34:14.242Z,31.90
2023-05-10T22:39:16.024Z,32.53
2023-05-10T22:44:17.555Z,29.20
2023-05-10T22:49:19.027Z,32.30
2023-05-10T23:12:38.579Z,40.10
2023-05-10T23:17:40.049Z,27.97
2023-05-10T23:22:41.796Z,23.47
2023-05-10T23:27:43.364Z,23.23
2023-05-10T23:32:44.681Z,21.77
2023-05-10T23:37:46.258Z,26.57
2023-05-10T23:42:47.580Z,24.30
2023-05-10T23:47:49.022Z,25.27
2023-05-10T23:52:50.840Z,25.30
2023-05-10T23:57:52.949Z,29.50
